Time;durP1;ratioP1;P1;durP2;ratioP2;P2;SDS_P1;SDS_P2;PMS_P1;PMS_P2;Temp;Humidity;BMP_temperature;BMP_pressure;BME280_temperature;BME280_humidity;BME280_pressure;Samples;Min_cycle;Max_cycle;Signal;HPM_P1;HPM_P2
2023/07/04 02:54:15;;;;;;;;;;;11.60;99.90;;;;;;4831886;29;20011;-92
2023/07/04 02:57:09;;;;;;;;;;;11.60;99.90;;;;;;4821251;29;20051;-92
2023/07/04 03:03:05;;;;;;;;;;;;;;;;;;;;;
2023/07/04 03:06:06;;;;;;;;;;;11.70;99.90;;;;;;4766850;30;19954;-91
2023/07/04 04:09:21;;;;;;;;;;;12.00;99.90;;;;;;4799410;29;20019;-92
2023/07/04 04:12:00;;;;;;;;;;;12.00;99.90;;;;;;4815636;29;20408;-93
2023/07/04 05:22:46;;;;;;;;;;;;;;;;;;;;;
2023/07/04 05:32:30;;;;;;;;;;;13.40;99.90;;;;;;4791376;29;20430;-96
2023/07/04 05:35:28;;;;;;;;;;;;;;;;;;;;;
2023/07/04 05:38:32;;;;;;;;;;;13.10;99.90;;;;;;4773872;30;20121;-96
2023/07/04 05:41:18;;;;;;;;;;;13.50;99.90;;;;;;4729133;29;19938;-96
2023/07/04 05:44:03;;;;;;;;;;;13.60;99.90;;;;;;4774400;29;19941;-96
2023/07/04 05:47:28;;;;;;;;;;;13.70;99.90;;;;;;4806432;29;19939;-96
2023/07/04 05:50:33;;;;;;;;;;;13.90;99.90;;;;;;4802662;29;20008;-96
2023/07/04 05:53:08;;;;;;;;;;;13.90;99.90;;;;;;4792106;24;19939;-91
2023/07/04 05:55:33;;;;;;;;;;;14.00;99.90;;;;;;4826037;29;19936;-92
2023/07/04 05:57:59;;;;;;;;;;;14.10;99.90;;;;;;4824691;29;19928;-92
2023/07/04 06:00:59;;;;;;;;;;;14.00;99.90;;;;;;4812562;29;20445;-93
2023/07/04 06:59:44;;;;;;;;;;;15.70;99.90;;;;;;4765001;23;21430;31
2023/07/04 07:12:42;;;;;;;;;;;15.80;99.90;;;;;;4844078;29;19934;-91
2023/07/04 07:15:32;;;;;;;;;;;16.10;99.90;;;;;;4828463;29;20026;-90
2023/07/04 07:18:14;;;;;;;;;;;16.30;99.90;;;;;;4822032;24;19929;-89
2023/07/04 07:21:01;;;;;;;;;;;16.40;99.90;;;;;;4800151;29;19936;-89
2023/07/04 07:23:39;;;;;;;;;;;16.00;99.90;;;;;;4798432;29;19925;-89
2023/07/04 07:26:06;;;;;;;;;;;16.40;99.90;;;;;;4801559;29;19972;-91
2023/07/04 07:28:42;;;;;;;;;;;16.00;99.90;;;;;;4798293;29;19931;-90
2023/07/04 07:31:07;;;;;;;;;;;16.40;99.90;;;;;;4797022;29;19960;-90
2023/07/04 07:33:38;;;;;;;;;;;16.40;99.90;;;;;;4804791;29;20029;-88
2023/07/04 07:36:28;;;;;;;;;;;16.50;99.90;;;;;;4822782;29;19929;-90
2023/07/04 07:38:56;;;;;;;;;;;16.70;99.90;;;;;;4762182;29;19931;-89
2023/07/04 07:41:29;;;;;;;;;;;17.10;99.90;;;;;;4801795;29;20309;-90
2023/07/04 07:43:55;;;;;;;;;;;17.10;99.90;;;;;;4813013;29;19924;-89
2023/07/04 07:46:20;;;;;;;;;;;17.10;99.90;;;;;;4792797;29;20259;-89
2023/07/04 07:48:51;;;;;;;;;;;17.00;99.90;;;;;;4781325;29;19936;-88
2023/07/04 07:51:26;;;;;;;;;;;16.90;99.90;;;;;;4804853;29;20000;-89
2023/07/04 07:53:53;;;;;;;;;;;16.90;99.90;;;;;;4791778;29;19931;-89
2023/07/04 07:56:20;;;;;;;;;;;16.90;99.90;;;;;;4795505;29;19960;-90
2023/07/04 07:58:46;;;;;;;;;;;16.90;99.90;;;;;;4791040;29;19925;-89
2023/07/04 08:01:16;;;;;;;;;;;16.90;99.90;;;;;;4787360;29;19932;-89
2023/07/04 08:03:42;;;;;;;;;;;17.30;99.90;;;;;;4831851;29;19984;-89
2023/07/04 08:06:26;;;;;;;;;;;17.30;99.90;;;;;;4791433;29;19932;-90
2023/07/04 08:08:55;;;;;;;;;;;17.20;99.90;;;;;;4792023;29;20339;-89
2023/07/04 08:11:26;;;;;;;;;;;17.20;99.90;;;;;;4805183;29;19928;-90
2023/07/04 08:13:53;;;;;;;;;;;17.10;99.90;;;;;;4797386;29;19928;-89
2023/07/04 08:16:20;;;;;;;;;;;16.00;99.90;;;;;;4823346;29;20397;-89
2023/07/04 08:18:46;;;;;;;;;;;17.10;99.90;;;;;;4805785;29;19925;-89
2023/07/04 08:21:12;;;;;;;;;;;17.10;99.90;;;;;;4824698;24;20286;-89
2023/07/04 08:23:41;;;;;;;;;;;17.30;99.90;;;;;;4837721;29;19928;-90
2023/07/04 08:26:33;;;;;;;;;;;17.20;99.90;;;;;;4842605;29;19925;-89
2023/07/04 08:29:19;;;;;;;;;;;17.20;99.90;;;;;;4835802;29;19935;-89
2023/07/04 08:32:00;;;;;;;;;;;17.20;99.90;;;;;;4822626;29;19984;-89
2023/07/04 08:34:29;;;;;;;;;;;17.40;99.90;;;;;;4835705;29;20413;-89
2023/07/04 08:37:04;;;;;;;;;;;17.30;99.90;;;;;;4827310;29;19924;-89
2023/07/04 08:39:33;;;;;;;;;;;17.60;99.90;;;;;;4825012;29;19931;-89
2023/07/04 08:42:04;;;;;;;;;;;17.60;99.90;;;;;;4815184;29;19920;-89
2023/07/04 08:44:42;;;;;;;;;;;17.50;99.90;;;;;;4815932;29;19928;-90
2023/07/04 08:47:19;;;;;;;;;;;17.60;99.90;;;;;;4833004;29;19928;-89
2023/07/04 08:49:48;;;;;;;;;;;17.60;99.90;;;;;;4823286;29;19928;-88
2023/07/04 08:52:23;;;;;;;;;;;17.70;99.90;;;;;;4820956;29;20328;-88
2023/07/04 08:54:49;;;;;;;;;;;17.90;99.90;;;;;;4823264;29;19928;-89
2023/07/04 08:57:25;;;;;;;;;;;18.20;99.90;;;;;;4835399;29;19951;-89
2023/07/04 09:00:05;;;;;;;;;;;18.50;99.90;;;;;;4835943;29;19931;-88
2023/07/04 09:02:47;;;;;;;;;;;18.70;99.90;;;;;;4825892;29;19924;-89
2023/07/04 09:05:23;;;;;;;;;;;18.50;99.90;;;;;;4809514;29;20282;-90
2023/07/04 09:08:26;;;;;;;;;;;18.70;99.90;;;;;;4833200;29;19925;-89
2023/07/04 09:11:06;;;;;;;;;;;18.90;99.90;;;;;;4826354;29;19924;-89
2023/07/04 09:13:42;;;;;;;;;;;19.20;99.90;;;;;;4825062;29;20024;-89
2023/07/04 09:16:13;;;;;;;;;;;19.20;99.90;;;;;;4826276;29;19935;-89
2023/07/04 09:18:49;;;;;;;;;;;19.10;99.90;;;;;;4830261;29;20042;-90
2023/07/04 09:21:30;;;;;;;;;;;19.00;99.90;;;;;;4832852;29;19979;-89
2023/07/04 09:23:58;;;;;;;;;;;19.10;99.90;;;;;;4826618;29;19936;-89
2023/07/04 09:26:27;;;;;;;;;;;18.80;99.90;;;;;;4820940;29;19924;-89
2023/07/04 09:28:53;;;;;;;;;;;18.60;99.90;;;;;;4836010;29;19980;-89
2023/07/04 09:31:20;;;;;;;;;;;18.50;99.90;;;;;;4824872;29;20366;-91
2023/07/04 09:33:48;;;;;;;;;;;18.60;99.90;;;;;;4823731;29;19964;-89
2023/07/04 09:36:29;;;;;;;;;;;18.80;99.90;;;;;;4822943;29;19939;-88
2023/07/04 09:39:11;;;;;;;;;;;19.00;99.90;;;;;;4826448;29;19934;-89
2023/07/04 09:41:54;;;;;;;;;;;19.00;99.90;;;;;;4823389;29;20043;-88
2023/07/04 09:44:33;;;;;;;;;;;18.80;99.90;;;;;;4812858;29;19959;-89
2023/07/04 09:47:00;;;;;;;;;;;18.60;99.90;;;;;;4826039;29;20239;-89
2023/07/04 09:49:27;;;;;;;;;;;18.80;99.90;;;;;;4826026;29;19935;-89
2023/07/04 09:52:18;;;;;;;;;;;18.90;99.90;;;;;;4835252;29;19924;-88
2023/07/04 09:55:05;;;;;;;;;;;18.90;99.90;;;;;;4815020;29;19928;-89
2023/07/04 09:57:32;;;;;;;;;;;19.00;99.90;;;;;;4825351;29;19972;-88
2023/07/04 10:00:15;;;;;;;;;;;18.80;99.90;;;;;;4826150;29;19934;-89
2023/07/04 10:02:46;;;;;;;;;;;18.70;99.90;;;;;;4836781;29;19921;-88
2023/07/04 10:05:21;;;;;;;;;;;18.40;99.90;;;;;;4818817;29;19929;-88
2023/07/04 10:07:58;;;;;;;;;;;18.50;99.90;;;;;;4827086;29;20337;-88
2023/07/04 10:10:44;;;;;;;;;;;18.60;99.90;;;;;;4829785;29;19931;-88
2023/07/04 10:13:12;;;;;;;;;;;18.90;99.90;;;;;;4828445;29;19983;-89
2023/07/04 10:15:40;;;;;;;;;;;18.70;99.90;;;;;;4824722;29;19932;-87
2023/07/04 10:18:06;;;;;;;;;;;18.70;99.90;;;;;;4824364;29;19924;-88
2023/07/04 10:20:39;;;;;;;;;;;18.40;99.90;;;;;;4828323;29;19924;-88
2023/07/04 10:23:11;;;;;;;;;;;18.60;99.90;;;;;;4830636;29;19975;-88
2023/07/04 10:25:37;;;;;;;;;;;18.50;99.90;;;;;;4852655;29;19924;-87
2023/07/04 10:28:09;;;;;;;;;;;18.60;99.90;;;;;;4830184;29;19924;-88
2023/07/04 10:30:35;;;;;;;;;;;18.70;99.90;;;;;;4827611;29;20385;-88
2023/07/04 10:33:03;;;;;;;;;;;18.90;99.90;;;;;;4827462;29;19956;-88
2023/07/04 10:35:40;;;;;;;;;;;19.00;99.90;;;;;;4827976;29;19956;-89
2023/07/04 10:38:12;;;;;;;;;;;19.40;99.90;;;;;;4828598;29;19953;-88
2023/07/04 10:40:39;;;;;;;;;;;19.60;99.90;;;;;;4827006;29;19927;-88
2023/07/04 10:43:09;;;;;;;;;;;20.00;99.90;;;;;;4825083;29;19924;-88
2023/07/04 10:45:38;;;;;;;;;;;20.20;99.90;;;;;;4821376;29;20284;-88
2023/07/04 10:48:07;;;;;;;;;;;19.90;99.90;;;;;;4827923;29;19928;-88
2023/07/04 10:50:35;;;;;;;;;;;19.70;99.90;;;;;;4843187;29;19950;-88
2023/07/04 10:53:01;;;;;;;;;;;19.50;99.90;;;;;;4824771;29;19947;-87
2023/07/04 10:55:36;;;;;;;;;;;19.40;99.90;;;;;;4820917;29;20381;-88
2023/07/04 10:58:04;;;;;;;;;;;19.40;99.90;;;;;;4827502;29;19924;-88
2023/07/04 11:00:33;;;;;;;;;;;19.50;99.90;;;;;;4838651;29;19952;-87
2023/07/04 11:03:01;;;;;;;;;;;19.70;99.90;;;;;;4827156;29;19928;-87
2023/07/04 11:05:31;;;;;;;;;;;19.70;99.90;;;;;;4830048;29;19931;-88
2023/07/04 11:07:59;;;;;;;;;;;19.50;99.90;;;;;;4835717;29;20294;-87
2023/07/04 11:10:24;;;;;;;;;;;19.30;99.90;;;;;;4827169;29;19928;-88
2023/07/04 11:12:56;;;;;;;;;;;19.00;99.90;;;;;;4827415;29;19935;-87
2023/07/04 11:15:28;;;;;;;;;;;18.80;99.90;;;;;;4826168;29;19987;-88
2023/07/04 11:17:54;;;;;;;;;;;18.50;99.90;;;;;;4838268;29;19987;-89
2023/07/04 11:20:22;;;;;;;;;;;18.40;99.90;;;;;;4832468;29;20296;-89
2023/07/04 11:22:49;;;;;;;;;;;18.30;99.90;;;;;;4821869;29;20346;-88
2023/07/04 11:25:27;;;;;;;;;;;18.60;99.90;;;;;;4846589;29;20403;-88
2023/07/04 11:28:14;;;;;;;;;;;18.80;99.90;;;;;;4831697;29;19931;-87
2023/07/04 11:30:40;;;;;;;;;;;18.80;99.90;;;;;;4826121;29;20337;-88
2023/07/04 11:33:07;;;;;;;;;;;18.60;99.90;;;;;;4853801;29;19950;-88
2023/07/04 11:35:33;;;;;;;;;;;18.90;99.90;;;;;;4823426;29;19993;-87
2023/07/04 11:38:05;;;;;;;;;;;19.20;99.90;;;;;;4824904;29;19924;-88
2023/07/04 11:40:41;;;;;;;;;;;19.50;99.90;;;;;;4837011;29;19999;-87
2023/07/04 11:43:17;;;;;;;;;;;19.90;99.90;;;;;;4833618;29;19999;-87
2023/07/04 11:45:45;;;;;;;;;;;20.30;99.90;;;;;;4820598;29;19974;-86
2023/07/04 11:48:14;;;;;;;;;;;20.50;99.90;;;;;;4827107;29;19924;-88
2023/07/04 11:50:42;;;;;;;;;;;20.70;99.90;;;;;;4826456;29;19934;-87
2023/07/04 11:53:14;;;;;;;;;;;21.00;99.90;;;;;;4837763;29;19932;-88
2023/07/04 11:55:40;;;;;;;;;;;21.00;99.90;;;;;;4825173;29;19963;-87
2023/07/04 11:58:06;;;;;;;;;;;20.50;99.90;;;;;;4826645;29;19971;-87
2023/07/04 12:00:35;;;;;;;;;;;20.30;99.90;;;;;;4825976;29;19928;-88
2023/07/04 12:03:19;;;;;;;;;;;20.00;99.90;;;;;;4826643;29;19924;-88
2023/07/04 12:05:48;;;;;;;;;;;19.90;99.90;;;;;;4825648;29;19937;-87
2023/07/04 12:08:17;;;;;;;;;;;19.70;99.90;;;;;;4837624;29;19970;-88
2023/07/04 12:10:43;;;;;;;;;;;19.40;99.90;;;;;;4844239;29;19928;-88
2023/07/04 12:13:09;;;;;;;;;;;19.30;99.90;;;;;;4833167;29;19930;-87
2023/07/04 12:15:36;;;;;;;;;;;19.10;99.90;;;;;;4822191;29;20378;-87
2023/07/04 12:18:13;;;;;;;;;;;19.40;99.90;;;;;;4819029;29;19924;-87
2023/07/04 12:20:39;;;;;;;;;;;19.50;99.90;;;;;;4825638;29;19963;-88
2023/07/04 12:23:09;;;;;;;;;;;19.50;99.90;;;;;;4826103;29;20391;-86
2023/07/04 12:25:36;;;;;;;;;;;19.60;99.90;;;;;;4821970;29;19935;-87
2023/07/04 12:28:02;;;;;;;;;;;19.70;99.90;;;;;;4833882;29;19966;-87
2023/07/04 12:30:28;;;;;;;;;;;19.70;99.90;;;;;;4832642;29;20375;-87
2023/07/04 12:32:54;;;;;;;;;;;19.90;99.90;;;;;;4830700;29;19928;-87
2023/07/04 12:35:25;;;;;;;;;;;20.00;99.90;;;;;;4857468;29;19947;-87
2023/07/04 12:37:51;;;;;;;;;;;19.90;99.90;;;;;;4831120;29;20566;-88
2023/07/04 12:40:19;;;;;;;;;;;19.80;99.90;;;;;;4833919;29;19924;-86
2023/07/04 12:42:45;;;;;;;;;;;19.90;99.90;;;;;;4824499;29;19931;-87
2023/07/04 12:45:21;;;;;;;;;;;20.00;99.90;;;;;;4821618;29;20028;-87
2023/07/04 12:47:47;;;;;;;;;;;20.00;99.90;;;;;;4822205;29;19927;-87
2023/07/04 12:50:14;;;;;;;;;;;20.00;99.90;;;;;;4840274;29;20075;-87
2023/07/04 12:52:39;;;;;;;;;;;20.10;99.90;;;;;;4839295;29;19928;-87
2023/07/04 12:55:07;;;;;;;;;;;20.10;99.90;;;;;;4825154;29;20383;-88
2023/07/04 12:57:33;;;;;;;;;;;20.20;99.90;;;;;;4824863;29;19931;-87
2023/07/04 13:00:09;;;;;;;;;;;20.30;99.90;;;;;;4825006;29;20392;-86
2023/07/04 13:02:35;;;;;;;;;;;20.30;99.90;;;;;;4831727;29;19960;-87
2023/07/04 13:05:02;;;;;;;;;;;20.30;99.90;;;;;;4824770;29;19940;-87
2023/07/04 13:07:28;;;;;;;;;;;20.20;99.90;;;;;;4823676;29;20004;-87
2023/07/04 13:09:55;;;;;;;;;;;20.20;99.90;;;;;;4836274;29;19924;-87
2023/07/04 13:12:24;;;;;;;;;;;20.30;99.90;;;;;;4824549;29;20014;-87
2023/07/04 13:14:50;;;;;;;;;;;20.40;99.90;;;;;;4821253;29;19989;-86
2023/07/04 13:17:18;;;;;;;;;;;20.20;99.90;;;;;;4824424;29;19955;-87
2023/07/04 13:19:44;;;;;;;;;;;20.00;99.90;;;;;;4821956;29;20281;-87
2023/07/04 13:22:14;;;;;;;;;;;19.90;99.90;;;;;;4820949;29;20396;-87
2023/07/04 13:24:40;;;;;;;;;;;19.90;99.90;;;;;;4819227;29;19983;-87
2023/07/04 13:27:19;;;;;;;;;;;20.10;99.90;;;;;;4821366;29;19928;-86
2023/07/04 13:29:50;;;;;;;;;;;20.00;99.90;;;;;;4836307;29;20321;-87
2023/07/04 13:32:20;;;;;;;;;;;20.30;99.90;;;;;;4848660;29;19928;-87
2023/07/04 13:34:46;;;;;;;;;;;20.50;99.90;;;;;;4825782;29;20441;-86
2023/07/04 13:37:11;;;;;;;;;;;20.50;99.90;;;;;;4821383;29;19928;-87
2023/07/04 13:39:37;;;;;;;;;;;20.40;99.90;;;;;;4822491;29;19924;-86
2023/07/04 13:42:03;;;;;;;;;;;20.40;99.90;;;;;;4821638;29;19924;-87
2023/07/04 13:44:29;;;;;;;;;;;20.60;99.90;;;;;;4829558;29;19924;-86
2023/07/04 13:46:54;;;;;;;;;;;20.70;99.90;;;;;;4845642;29;19976;-88
2023/07/04 13:49:20;;;;;;;;;;;20.60;99.90;;;;;;4842247;29;19947;-87
2023/07/04 13:51:46;;;;;;;;;;;20.50;99.90;;;;;;4827717;29;19928;-86
2023/07/04 13:54:12;;;;;;;;;;;20.60;99.90;;;;;;4827827;29;19927;-86
2023/07/04 13:56:37;;;;;;;;;;;20.60;99.90;;;;;;4850934;29;20388;-86
2023/07/04 13:59:03;;;;;;;;;;;20.70;99.90;;;;;;4829750;29;19973;-86
2023/07/04 14:01:29;;;;;;;;;;;20.80;99.90;;;;;;4824375;29;19929;-86
2023/07/04 14:03:55;;;;;;;;;;;20.70;99.90;;;;;;4824382;29;19928;-87
2023/07/04 14:06:20;;;;;;;;;;;20.60;99.90;;;;;;4824648;29;19988;-87
2023/07/04 14:08:46;;;;;;;;;;;20.60;99.90;;;;;;4825222;29;20270;-86
2023/07/04 14:11:13;;;;;;;;;;;20.70;99.90;;;;;;4823269;29;19931;-87
2023/07/04 14:13:39;;;;;;;;;;;20.70;99.90;;;;;;4824497;29;19928;-87
2023/07/04 14:16:05;;;;;;;;;;;20.80;99.90;;;;;;4824463;29;19935;-87
2023/07/04 14:18:31;;;;;;;;;;;20.90;99.90;;;;;;4824120;29;20007;-86
2023/07/04 14:20:57;;;;;;;;;;;20.90;99.90;;;;;;4823966;29;20278;-86
2023/07/04 14:23:23;;;;;;;;;;;20.80;99.90;;;;;;4827697;29;19935;-87
2023/07/04 14:25:49;;;;;;;;;;;20.80;99.90;;;;;;4835031;29;20497;-86
2023/07/04 14:28:15;;;;;;;;;;;20.80;99.90;;;;;;4827399;29;19963;-87
2023/07/04 14:30:41;;;;;;;;;;;20.80;99.90;;;;;;4823655;29;19990;-86
2023/07/04 14:33:06;;;;;;;;;;;20.80;99.90;;;;;;4823831;29;20010;-86
2023/07/04 14:35:32;;;;;;;;;;;21.00;99.90;;;;;;4826792;29;20022;-86
2023/07/04 14:37:58;;;;;;;;;;;21.10;99.90;;;;;;4842328;29;19931;-86
2023/07/04 14:40:25;;;;;;;;;;;21.20;99.90;;;;;;4825829;29;19928;-87
2023/07/04 14:42:54;;;;;;;;;;;21.20;99.90;;;;;;4827038;29;19927;-87
2023/07/04 14:45:20;;;;;;;;;;;21.20;99.80;;;;;;4825699;29;19928;-86
2023/07/04 14:47:45;;;;;;;;;;;21.20;99.70;;;;;;4823798;29;19928;-86
2023/07/04 14:50:11;;;;;;;;;;;21.20;99.40;;;;;;4819364;29;20284;-86
2023/07/04 14:52:36;;;;;;;;;;;21.30;99.90;;;;;;4840740;29;20419;-86
2023/07/04 14:55:02;;;;;;;;;;;21.30;99.70;;;;;;4841717;29;20026;-86
2023/07/04 14:57:28;;;;;;;;;;;21.30;98.70;;;;;;4826187;29;19935;-86
2023/07/04 14:59:54;;;;;;;;;;;21.10;98.40;;;;;;4826244;29;19928;-86
2023/07/04 15:02:19;;;;;;;;;;;21.10;98.70;;;;;;4826064;29;20468;-85
2023/07/04 15:04:45;;;;;;;;;;;21.20;99.90;;;;;;4841505;29;19924;-85
2023/07/04 15:07:11;;;;;;;;;;;21.20;99.80;;;;;;4840944;29;20382;-85
2023/07/04 15:09:37;;;;;;;;;;;21.30;99.10;;;;;;4841585;29;19931;-86
2023/07/04 15:12:03;;;;;;;;;;;21.30;99.90;;;;;;4852859;29;20406;-85
2023/07/04 15:14:29;;;;;;;;;;;21.30;99.90;;;;;;4825689;29;20844;-86
2023/07/04 15:16:55;;;;;;;;;;;21.40;99.30;;;;;;4825410;29;19962;-86
2023/07/04 15:19:24;;;;;;;;;;;21.30;99.40;;;;;;4825929;29;19928;-86
2023/07/04 15:21:51;;;;;;;;;;;21.30;99.90;;;;;;4827822;29;20293;-86
2023/07/04 15:24:17;;;;;;;;;;;21.30;99.90;;;;;;4833971;29;19924;-86
2023/07/04 15:26:43;;;;;;;;;;;21.40;99.60;;;;;;4825093;29;19924;-85
2023/07/04 15:29:08;;;;;;;;;;;21.50;99.90;;;;;;4825869;29;19931;-85
2023/07/04 15:31:34;;;;;;;;;;;21.40;99.60;;;;;;4843520;29;20161;-86
2023/07/04 15:34:00;;;;;;;;;;;21.40;98.70;;;;;;4848877;29;20324;-86
2023/07/04 15:36:26;;;;;;;;;;;21.50;99.50;;;;;;4825084;29;19935;-86
2023/07/04 15:38:52;;;;;;;;;;;21.50;99.60;;;;;;4841046;29;19924;-85
2023/07/04 15:41:21;;;;;;;;;;;21.50;98.30;;;;;;4824914;29;19928;-86
2023/07/04 15:43:48;;;;;;;;;;;21.50;98.70;;;;;;4830244;29;20019;-86
2023/07/04 15:46:14;;;;;;;;;;;21.50;97.40;;;;;;4819914;29;20386;-86
2023/07/04 15:48:40;;;;;;;;;;;21.50;96.60;;;;;;4816676;29;19928;-85
2023/07/04 15:51:07;;;;;;;;;;;21.50;95.50;;;;;;4840418;29;19924;-85
2023/07/04 15:53:33;;;;;;;;;;;21.50;96.50;;;;;;4822459;29;19963;-85
2023/07/04 15:56:01;;;;;;;;;;;21.50;95.40;;;;;;4822179;29;19974;-86
2023/07/04 15:58:27;;;;;;;;;;;21.60;96.80;;;;;;4825442;29;20329;-86
2023/07/04 16:00:54;;;;;;;;;;;21.60;96.60;;;;;;4839451;29;20413;-85
2023/07/04 16:03:20;;;;;;;;;;;21.70;96.30;;;;;;4813911;29;19930;-85
2023/07/04 16:05:45;;;;;;;;;;;21.60;95.00;;;;;;4837947;29;20002;-85
2023/07/04 16:08:11;;;;;;;;;;;21.70;94.80;;;;;;4835773;29;19930;-85
2023/07/04 16:10:37;;;;;;;;;;;21.70;94.10;;;;;;4829701;29;19934;-85
2023/07/04 16:13:03;;;;;;;;;;;21.60;95.20;;;;;;4832668;29;19928;-85
2023/07/04 16:15:29;;;;;;;;;;;21.70;94.90;;;;;;4819394;29;19935;-85
2023/07/04 16:17:54;;;;;;;;;;;21.70;94.50;;;;;;4832118;29;19924;-85
2023/07/04 16:20:20;;;;;;;;;;;21.70;95.00;;;;;;4839591;29;19932;-84
2023/07/04 16:22:46;;;;;;;;;;;21.60;94.10;;;;;;4825390;29;19928;-85
2023/07/04 16:25:11;;;;;;;;;;;21.60;95.20;;;;;;4839412;29;19928;-85
2023/07/04 16:27:46;;;;;;;;;;;21.60;95.10;;;;;;5105772;27;20304;-85
2023/07/04 16:30:12;;;;;;;;;;;21.60;94.30;;;;;;5136688;27;19934;-85
2023/07/04 16:32:38;;;;;;;;;;;21.50;93.60;;;;;;5136909;27;19931;-84
2023/07/04 16:35:04;;;;;;;;;;;21.40;94.60;;;;;;5087350;28;20314;-85
2023/07/04 16:37:29;;;;;;;;;;;21.30;94.70;;;;;;5103267;28;20007;-85
2023/07/04 16:39:55;;;;;;;;;;;21.30;95.00;;;;;;5119500;27;19934;-85
2023/07/04 16:42:21;;;;;;;;;;;21.30;95.50;;;;;;5086672;28;19920;-85
2023/07/04 16:44:46;;;;;;;;;;;21.30;95.10;;;;;;5066545;28;20011;-85
2023/07/04 16:47:12;;;;;;;;;;;21.20;95.20;;;;;;5096459;28;19931;-85
2023/07/04 16:49:38;;;;;;;;;;;21.30;96.50;;;;;;5072885;28;20373;-84
2023/07/04 16:52:03;;;;;;;;;;;21.40;96.30;;;;;;5103479;28;19928;-85
2023/07/04 16:54:29;;;;;;;;;;;21.50;96.60;;;;;;5081336;28;19928;-85
2023/07/04 16:56:55;;;;;;;;;;;21.60;96.40;;;;;;5066555;28;19925;-85
2023/07/04 16:59:20;;;;;;;;;;;21.80;96.20;;;;;;5085924;28;19927;-85
2023/07/04 17:01:46;;;;;;;;;;;22.00;95.70;;;;;;5074939;28;19928;-85
2023/07/04 17:04:11;;;;;;;;;;;22.10;95.00;;;;;;5067147;28;19951;-85
2023/07/04 17:06:37;;;;;;;;;;;22.30;96.10;;;;;;5096166;28;19924;-85
2023/07/04 17:09:03;;;;;;;;;;;22.50;96.80;;;;;;5107922;27;20368;-85
2023/07/04 17:11:29;;;;;;;;;;;22.50;94.90;;;;;;5067705;28;20372;-87
2023/07/04 17:13:55;;;;;;;;;;;22.40;95.10;;;;;;5084371;28;19980;-85
2023/07/04 17:16:20;;;;;;;;;;;22.20;95.20;;;;;;5134178;27;20276;-85
2023/07/04 17:18:47;;;;;;;;;;;22.00;95.40;;;;;;5084527;28;19932;-85
2023/07/04 17:21:13;;;;;;;;;;;21.90;95.60;;;;;;5081893;28;19931;-85
2023/07/04 17:23:39;;;;;;;;;;;21.70;96.50;;;;;;5084178;28;19935;-84
2023/07/04 17:26:05;;;;;;;;;;;21.50;96.10;;;;;;5121747;27;19932;-84
2023/07/04 17:28:32;;;;;;;;;;;21.30;96.30;;;;;;5083846;28;19957;-89
2023/07/04 17:30:59;;;;;;;;;;;21.20;96.40;;;;;;5099778;28;19935;-85
2023/07/04 17:33:25;;;;;;;;;;;21.00;96.60;;;;;;5072400;28;20375;-85
2023/07/04 17:35:51;;;;;;;;;;;21.00;97.20;;;;;;5082297;28;19954;-85
2023/07/04 17:38:17;;;;;;;;;;;20.80;96.90;;;;;;5120855;27;19928;-89
2023/07/04 17:40:42;;;;;;;;;;;20.70;97.10;;;;;;5060728;28;19938;-88
2023/07/04 17:43:08;;;;;;;;;;;20.50;97.90;;;;;;5090138;28;19929;-89
2023/07/04 17:45:34;;;;;;;;;;;20.40;98.50;;;;;;5074295;28;19932;-86
2023/07/04 17:47:59;;;;;;;;;;;20.30;98.20;;;;;;5100007;28;20430;-85
2023/07/04 17:50:25;;;;;;;;;;;20.20;99.10;;;;;;5068288;28;19924;-85
2023/07/04 17:52:51;;;;;;;;;;;20.10;99.50;;;;;;5069375;28;19928;-85
2023/07/04 17:55:22;;;;;;;;;;;19.90;99.30;;;;;;5069471;28;19987;-93
2023/07/04 17:57:53;;;;;;;;;;;19.80;99.50;;;;;;5101005;28;20288;-85
2023/07/04 18:00:19;;;;;;;;;;;19.70;99.90;;;;;;5050099;28;19928;-85
2023/07/04 18:02:45;;;;;;;;;;;19.60;99.90;;;;;;5064404;28;19928;-85
2023/07/04 18:05:10;;;;;;;;;;;19.50;99.90;;;;;;5073324;28;19935;-85
2023/07/04 18:07:36;;;;;;;;;;;19.50;99.90;;;;;;5069131;28;20011;-85
2023/07/04 18:10:01;;;;;;;;;;;19.40;99.90;;;;;;5095619;28;19932;-85
2023/07/04 18:12:27;;;;;;;;;;;19.30;99.90;;;;;;5066338;28;20008;-86
2023/07/04 18:14:54;;;;;;;;;;;19.30;99.90;;;;;;5109877;27;19989;-86
2023/07/04 18:17:19;;;;;;;;;;;19.20;99.90;;;;;;5049352;28;19928;-86
2023/07/04 18:19:45;;;;;;;;;;;19.20;99.90;;;;;;5056167;28;19935;-86
2023/07/04 18:22:11;;;;;;;;;;;19.10;99.90;;;;;;5048876;28;19954;-86
2023/07/04 18:24:37;;;;;;;;;;;19.10;99.90;;;;;;5054023;28;19928;-85
2023/07/04 18:27:03;;;;;;;;;;;19.10;99.90;;;;;;5051307;28;19978;-85
2023/07/04 18:29:29;;;;;;;;;;;19.10;99.90;;;;;;5052560;28;20007;-85
2023/07/04 18:31:58;;;;;;;;;;;19.10;99.90;;;;;;5069717;28;20019;-85
2023/07/04 18:34:24;;;;;;;;;;;19.00;99.90;;;;;;5070648;28;20007;-86
2023/07/04 18:36:50;;;;;;;;;;;19.00;99.90;;;;;;5069058;28;19933;-86
2023/07/04 18:39:15;;;;;;;;;;;19.00;99.90;;;;;;5050752;28;19928;-85
2023/07/04 18:41:42;;;;;;;;;;;18.90;99.90;;;;;;5066948;28;19928;-86
2023/07/04 18:44:09;;;;;;;;;;;18.80;99.90;;;;;;5070496;28;19928;-86
2023/07/04 18:46:36;;;;;;;;;;;18.80;99.90;;;;;;5049014;28;19934;-84
2023/07/04 18:49:02;;;;;;;;;;;18.80;99.90;;;;;;5066583;28;19929;-86
2023/07/04 18:51:29;;;;;;;;;;;18.70;99.90;;;;;;5069239;28;19941;-86
2023/07/04 18:53:58;;;;;;;;;;;18.70;99.90;;;;;;5051841;28;20274;-85
2023/07/04 18:56:24;;;;;;;;;;;18.60;99.90;;;;;;5050932;28;20047;-87
2023/07/04 18:58:51;;;;;;;;;;;18.50;99.90;;;;;;5050172;28;19933;-87
2023/07/04 19:01:18;;;;;;;;;;;18.50;99.90;;;;;;5047428;28;19951;-87
2023/07/04 19:03:44;;;;;;;;;;;18.40;99.90;;;;;;5055450;28;19936;-86
2023/07/04 19:06:11;;;;;;;;;;;18.40;99.90;;;;;;5059749;28;19928;-85
2023/07/04 19:08:37;;;;;;;;;;;18.40;99.90;;;;;;5051726;28;19940;-86
2023/07/04 19:11:02;;;;;;;;;;;18.40;99.90;;;;;;5050440;28;19928;-87
2023/07/04 19:13:29;;;;;;;;;;;18.30;99.90;;;;;;5068757;28;19931;-86
2023/07/04 19:15:55;;;;;;;;;;;18.30;99.90;;;;;;5050893;28;19928;-86
2023/07/04 19:18:22;;;;;;;;;;;18.20;99.90;;;;;;5084935;28;19931;-88
2023/07/04 19:20:51;;;;;;;;;;;18.10;99.90;;;;;;5055855;28;19928;-86
2023/07/04 19:23:17;;;;;;;;;;;18.10;99.90;;;;;;5043553;28;19929;-87
2023/07/04 19:25:43;;;;;;;;;;;18.00;99.90;;;;;;5051361;28;20314;-86
2023/07/04 19:28:09;;;;;;;;;;;18.00;99.90;;;;;;5082554;28;19924;-86
2023/07/04 19:30:36;;;;;;;;;;;17.90;99.90;;;;;;5055257;28;19978;-86
2023/07/04 19:33:02;;;;;;;;;;;17.80;99.90;;;;;;5083895;28;20006;-87
2023/07/04 19:35:27;;;;;;;;;;;17.70;99.90;;;;;;5047351;28;19932;-86
2023/07/04 19:37:53;;;;;;;;;;;17.60;99.90;;;;;;5059275;28;20685;-86
2023/07/04 19:40:19;;;;;;;;;;;17.60;99.90;;;;;;5048141;28;19925;-87
2023/07/04 19:42:44;;;;;;;;;;;17.50;99.90;;;;;;5077322;28;20385;-86
2023/07/04 19:45:10;;;;;;;;;;;17.50;99.90;;;;;;5081213;28;19928;-87
2023/07/04 19:47:36;;;;;;;;;;;17.40;99.90;;;;;;5045291;28;19933;-86
2023/07/04 19:50:02;;;;;;;;;;;17.30;99.90;;;;;;5067037;28;20015;-87
2023/07/04 19:52:28;;;;;;;;;;;17.30;99.90;;;;;;5080294;28;19921;-88
2023/07/04 19:54:54;;;;;;;;;;;17.20;99.90;;;;;;5064811;28;19981;-86
2023/07/04 19:57:20;;;;;;;;;;;17.20;99.90;;;;;;5048912;28;19930;-86
2023/07/04 19:59:48;;;;;;;;;;;17.10;99.90;;;;;;5071371;28;19932;-87
2023/07/04 20:02:14;;;;;;;;;;;17.10;99.90;;;;;;5081540;28;19928;-86
2023/07/04 20:04:40;;;;;;;;;;;16.90;99.90;;;;;;5050072;28;19931;-88
2023/07/04 20:07:06;;;;;;;;;;;16.90;99.90;;;;;;5050638;28;19967;-86
2023/07/04 20:09:32;;;;;;;;;;;16.80;99.90;;;;;;5085748;28;19929;-86
2023/07/04 20:11:58;;;;;;;;;;;16.80;99.90;;;;;;5078134;28;19954;-86
2023/07/04 20:14:24;;;;;;;;;;;16.70;99.90;;;;;;5048772;28;19929;-87
2023/07/04 20:16:50;;;;;;;;;;;16.60;99.90;;;;;;5047179;28;19928;-84
2023/07/04 20:19:16;;;;;;;;;;;16.60;99.90;;;;;;5046217;28;20141;-88
2023/07/04 20:21:41;;;;;;;;;;;16.50;99.90;;;;;;5085389;28;20001;-88
2023/07/04 20:24:07;;;;;;;;;;;16.50;99.90;;;;;;5047051;28;19931;-86
2023/07/04 20:26:33;;;;;;;;;;;16.40;99.90;;;;;;5094557;28;19932;-86
2023/07/04 20:28:59;;;;;;;;;;;16.40;99.90;;;;;;5060494;28;19935;-87
2023/07/04 20:31:24;;;;;;;;;;;16.40;99.90;;;;;;5084542;28;19935;-87
2023/07/04 20:33:50;;;;;;;;;;;16.30;99.90;;;;;;5055644;28;19928;-87
2023/07/04 20:36:16;;;;;;;;;;;16.30;99.90;;;;;;5080000;28;19943;-88
2023/07/04 20:38:42;;;;;;;;;;;16.20;99.90;;;;;;5064990;28;19928;-87
2023/07/04 20:41:09;;;;;;;;;;;16.20;99.90;;;;;;5064041;28;19928;-87
2023/07/04 20:43:35;;;;;;;;;;;16.10;99.90;;;;;;5050385;28;19928;-88
2023/07/04 20:46:01;;;;;;;;;;;16.10;99.90;;;;;;5047536;28;19928;-88
2023/07/04 20:48:27;;;;;;;;;;;16.10;99.90;;;;;;5048720;28;19947;-88
2023/07/04 20:50:52;;;;;;;;;;;16.00;99.90;;;;;;5084092;28;20404;-88
2023/07/04 20:53:18;;;;;;;;;;;16.00;99.90;;;;;;5098650;28;19928;-87